Time;durP1;ratioP1;P1;durP2;ratioP2;P2;SDS_P1;SDS_P2;PMS_P1;PMS_P2;Temp;Humidity;BMP_temperature;BMP_pressure;BME280_temperature;BME280_humidity;BME280_pressure;Samples;Min_cycle;Max_cycle;Signal;HPM_P1;HPM_P2
2021/09/29 00:00:30;;;;;;;2.45;1.40;;;17.10;69.20;;;;;;5018952;28;20029;-79
2021/09/29 00:02:56;;;;;;;2.22;1.30;;;17.00;69.10;;;;;;5063937;28;20094;-80
2021/09/29 00:05:22;;;;;;;2.30;1.45;;;17.00;69.20;;;;;;5051882;28;20041;-79
2021/09/29 00:07:47;;;;;;;2.63;1.63;;;17.00;69.20;;;;;;5055365;28;20048;-80
2021/09/29 00:10:14;;;;;;;2.33;1.70;;;17.00;69.20;;;;;;5051536;28;20462;-80
2021/09/29 00:12:41;;;;;;;2.45;1.35;;;17.00;69.20;;;;;;5034846;28;20056;-80
2021/09/29 00:15:10;;;;;;;1.30;1.20;;;17.00;69.20;;;;;;5060064;28;20461;-81
2021/09/29 00:17:37;;;;;;;2.50;1.40;;;17.00;69.20;;;;;;5064180;28;20028;-78
2021/09/29 00:20:05;;;;;;;1.30;1.10;;;17.00;69.90;;;;;;5062825;28;20041;-79
2021/09/29 00:22:31;;;;;;;2.03;1.25;;;17.00;69.30;;;;;;5054934;28;20070;-80
2021/09/29 00:24:57;;;;;;;2.22;1.40;;;17.00;69.30;;;;;;5039559;28;20116;-81
2021/09/29 00:27:23;;;;;;;2.38;1.45;;;17.00;69.30;;;;;;5054370;28;20060;-80
2021/09/29 00:29:50;;;;;;;1.83;1.33;;;16.90;69.30;;;;;;5031314;28;20083;-80
2021/09/29 00:32:18;;;;;;;1.88;1.55;;;16.90;69.30;;;;;;5061546;28;20028;-79
2021/09/29 00:34:44;;;;;;;2.25;1.42;;;16.90;69.30;;;;;;5053959;28;20041;-82
2021/09/29 00:37:10;;;;;;;2.75;1.70;;;16.90;69.30;;;;;;5051346;28;20051;-80
2021/09/29 00:39:36;;;;;;;2.58;1.40;;;16.90;69.30;;;;;;5037947;28;20025;-80
2021/09/29 00:42:03;;;;;;;2.47;1.40;;;16.90;69.40;;;;;;5060637;28;20033;-80
2021/09/29 00:44:29;;;;;;;1.92;1.50;;;16.90;69.40;;;;;;5062666;28;20512;-79
2021/09/29 00:46:55;;;;;;;1.83;1.40;;;16.90;69.40;;;;;;5053099;28;20033;-80
2021/09/29 00:49:21;;;;;;;2.75;1.63;;;16.90;69.40;;;;;;5057248;28;20059;-80
2021/09/29 00:51:47;;;;;;;2.42;1.48;;;16.90;69.40;;;;;;5050874;28;20444;-82
2021/09/29 00:54:13;;;;;;;2.13;1.40;;;16.90;69.40;;;;;;5050169;28;20048;-80
2021/09/29 00:56:39;;;;;;;1.80;1.25;;;16.90;69.50;;;;;;5039300;28;20036;-80
2021/09/29 00:59:05;;;;;;;2.60;1.80;;;16.80;69.40;;;;;;5041430;28;20029;-79
2021/09/29 01:01:32;;;;;;;2.97;1.77;;;16.80;69.40;;;;;;5051310;28;20444;-79
2021/09/29 01:04:00;;;;;;;2.38;1.60;;;16.80;69.50;;;;;;5034172;28;20480;-81
2021/09/29 01:06:38;;;;;;;2.85;1.55;;;16.80;69.50;;;;;;5048067;28;20021;-80
2021/09/29 01:09:27;;;;;;;3.03;1.48;;;16.80;69.50;;;;;;5046809;28;20033;-80
2021/09/29 01:12:05;;;;;;;2.47;1.77;;;16.80;69.60;;;;;;5053704;28;20033;-80
2021/09/29 01:14:48;;;;;;;2.67;1.42;;;16.80;69.50;;;;;;5042024;28;20040;-80
2021/09/29 01:17:18;;;;;;;1.90;1.42;;;16.80;69.50;;;;;;5057491;28;20032;-80
2021/09/29 01:19:46;;;;;;;2.60;1.55;;;16.80;69.50;;;;;;5029314;28;20025;-80
2021/09/29 01:22:41;;;;;;;2.15;1.50;;;16.80;69.60;;;;;;5050377;28;20568;-80
2021/09/29 01:25:18;;;;;;;2.15;1.30;;;16.70;69.70;;;;;;5058155;28;20044;-80
2021/09/29 01:27:46;;;;;;;2.65;1.60;;;16.80;69.60;;;;;;5059705;28;20043;-80
2021/09/29 01:30:12;;;;;;;1.73;1.42;;;16.80;69.60;;;;;;5067018;28;20025;-80
2021/09/29 01:32:39;;;;;;;2.20;1.40;;;16.70;69.50;;;;;;5063659;28;20037;-82
2021/09/29 01:35:06;;;;;;;2.53;1.88;;;16.80;69.60;;;;;;5023472;28;20033;-80
2021/09/29 01:37:32;;;;;;;1.75;1.48;;;16.80;69.60;;;;;;5044068;28;20028;-80
2021/09/29 01:39:58;;;;;;;2.63;1.50;;;16.70;69.60;;;;;;5063506;28;20029;-81
2021/09/29 01:42:24;;;;;;;2.28;1.65;;;16.70;69.60;;;;;;5057000;28;20029;-80
2021/09/29 01:44:50;;;;;;;2.47;1.58;;;16.70;69.60;;;;;;5046153;28;20029;-80
2021/09/29 01:47:15;;;;;;;2.20;1.60;;;16.70;69.60;;;;;;5064317;28;20033;-80
2021/09/29 01:49:46;;;;;;;2.70;1.50;;;16.70;69.60;;;;;;5056919;28;20025;-80
2021/09/29 01:52:12;;;;;;;2.75;1.60;;;16.70;69.60;;;;;;5047100;28;20060;-80
2021/09/29 01:54:44;;;;;;;3.47;1.80;;;16.70;69.60;;;;;;5021020;28;20047;-80
2021/09/29 01:57:10;;;;;;;2.45;1.55;;;16.70;69.60;;;;;;5053848;28;20043;-80
2021/09/29 01:59:37;;;;;;;2.08;1.63;;;16.70;69.50;;;;;;5054475;28;20091;-80
2021/09/29 02:02:03;;;;;;;2.35;1.55;;;16.70;69.60;;;;;;5053770;28;20039;-80
2021/09/29 02:04:30;;;;;;;2.72;1.73;;;16.70;69.60;;;;;;5054685;28;20056;-80
2021/09/29 02:06:57;;;;;;;3.00;1.75;;;16.70;69.50;;;;;;5051934;28;20156;-81
2021/09/29 02:09:24;;;;;;;2.20;1.80;;;16.70;69.60;;;;;;5053295;28;20037;-80
2021/09/29 02:11:51;;;;;;;3.60;1.98;;;16.70;69.60;;;;;;5061346;28;20104;-79
2021/09/29 02:14:18;;;;;;;2.78;1.75;;;16.70;69.50;;;;;;5052824;28;20045;-80
2021/09/29 02:16:45;;;;;;;2.17;1.58;;;16.70;69.60;;;;;;5061554;28;20037;-80
2021/09/29 02:19:11;;;;;;;2.67;1.80;;;16.70;69.60;;;;;;5053967;28;20098;-80
2021/09/29 02:21:41;;;;;;;2.17;1.67;;;16.70;69.60;;;;;;5037265;28;20458;-79
2021/09/29 02:24:07;;;;;;;2.63;1.98;;;16.60;69.60;;;;;;5067512;28;20135;-80
2021/09/29 02:26:34;;;;;;;2.83;1.70;;;16.60;69.50;;;;;;5064199;28;20028;-80
2021/09/29 02:29:00;;;;;;;3.10;1.70;;;16.60;69.50;;;;;;5066904;28;20059;-79
2021/09/29 02:31:26;;;;;;;2.70;1.85;;;16.60;69.50;;;;;;5037205;28;20057;-79
2021/09/29 02:33:52;;;;;;;3.25;2.08;;;16.60;69.50;;;;;;5052656;28;20515;-80
2021/09/29 02:36:18;;;;;;;3.58;1.90;;;16.60;69.50;;;;;;5047013;28;20389;-80
2021/09/29 02:38:44;;;;;;;2.03;1.80;;;16.60;69.50;;;;;;5055128;28;20037;-80
2021/09/29 02:41:12;;;;;;;2.22;1.63;;;16.50;69.40;;;;;;5038471;28;20021;-80
2021/09/29 02:43:37;;;;;;;3.33;1.98;;;16.50;69.50;;;;;;5057911;28;20021;-80
2021/09/29 02:46:04;;;;;;;2.20;1.63;;;16.50;69.50;;;;;;5054189;28;20029;-80
2021/09/29 02:48:30;;;;;;;2.13;1.60;;;16.60;69.50;;;;;;5044796;28;20469;-79
2021/09/29 02:50:55;;;;;;;2.22;1.70;;;16.50;69.50;;;;;;5057724;28;20043;-79
2021/09/29 02:53:21;;;;;;;2.13;1.85;;;16.50;69.50;;;;;;5044553;28;20051;-79
2021/09/29 02:55:47;;;;;;;2.17;1.88;;;16.50;69.50;;;;;;5048892;28;20037;-79
2021/09/29 02:58:13;;;;;;;1.80;1.55;;;16.50;69.50;;;;;;5061455;28;20025;-79
2021/09/29 03:00:39;;;;;;;2.60;1.88;;;16.50;69.50;;;;;;5057599;28;20052;-81
2021/09/29 03:03:05;;;;;;;3.08;1.92;;;16.50;69.50;;;;;;5052538;28;20033;-80
2021/09/29 03:05:30;;;;;;;3.00;1.88;;;16.50;69.50;;;;;;5057018;28;20087;-79
2021/09/29 03:07:56;;;;;;;2.88;1.80;;;16.50;69.50;;;;;;5036355;28;20112;-80
2021/09/29 03:10:22;;;;;;;3.22;1.90;;;16.50;69.50;;;;;;5036492;28;20436;-80
2021/09/29 03:12:47;;;;;;;2.28;1.83;;;16.50;69.50;;;;;;5051547;28;20056;-79
2021/09/29 03:15:14;;;;;;;3.78;1.85;;;16.40;69.40;;;;;;5058701;28;20087;-80
2021/09/29 03:17:41;;;;;;;2.08;1.85;;;16.40;69.40;;;;;;5050185;28;20060;-79
2021/09/29 03:20:07;;;;;;;2.80;2.22;;;16.40;69.40;;;;;;5052703;28;20465;-79
2021/09/29 03:22:33;;;;;;;2.20;1.80;;;16.40;69.50;;;;;;5036223;28;20466;-80
2021/09/29 03:25:00;;;;;;;1.98;1.75;;;16.40;69.40;;;;;;5036323;28;20115;-79
2021/09/29 03:27:25;;;;;;;2.85;1.90;;;16.40;69.50;;;;;;5052020;28;20039;-79
2021/09/29 03:29:51;;;;;;;3.30;1.85;;;16.40;69.50;;;;;;5052630;28;20372;-80
2021/09/29 03:32:17;;;;;;;3.45;1.95;;;16.40;69.50;;;;;;5046135;28;20028;-80
2021/09/29 03:34:43;;;;;;;2.25;1.77;;;16.40;69.50;;;;;;5058389;28;20488;-80
2021/09/29 03:37:09;;;;;;;3.28;1.75;;;16.40;69.50;;;;;;5033725;28;20450;-80
2021/09/29 03:39:34;;;;;;;2.85;1.80;;;16.30;69.50;;;;;;5050430;28;20473;-79
2021/09/29 03:42:00;;;;;;;3.20;1.88;;;16.30;69.50;;;;;;5044177;28;20060;-79
2021/09/29 03:44:26;;;;;;;2.97;1.98;;;16.30;69.50;;;;;;5069915;28;20020;-80
2021/09/29 03:46:52;;;;;;;2.58;1.90;;;16.30;69.50;;;;;;5041138;28;20385;-79
2021/09/29 03:49:18;;;;;;;3.17;1.90;;;16.30;69.50;;;;;;5053161;28;20389;-79
2021/09/29 03:51:46;;;;;;;3.38;2.22;;;16.30;69.50;;;;;;5062191;28;20018;-79
2021/09/29 03:54:12;;;;;;;1.88;1.58;;;16.30;69.60;;;;;;5059766;28;20499;-79
2021/09/29 03:56:38;;;;;;;2.55;1.80;;;16.20;69.50;;;;;;5055837;28;20032;-80
2021/09/29 03:59:04;;;;;;;2.15;1.88;;;16.30;69.60;;;;;;5060260;28;20036;-80
2021/09/29 04:01:30;;;;;;;1.70;1.58;;;16.20;69.50;;;;;;5041842;28;20033;-80
2021/09/29 04:03:56;;;;;;;2.33;1.83;;;16.20;69.50;;;;;;5043603;28;20032;-80
2021/09/29 04:06:22;;;;;;;3.00;2.13;;;16.20;69.60;;;;;;5058144;28;20432;-80
2021/09/29 04:08:47;;;;;;;3.75;1.98;;;16.20;69.60;;;;;;5037341;28;20044;-79
2021/09/29 04:11:13;;;;;;;3.08;1.95;;;16.20;69.60;;;;;;5062073;28;20064;-80
2021/09/29 04:13:39;;;;;;;3.35;1.95;;;16.20;69.60;;;;;;5050073;28;20064;-80
2021/09/29 04:16:05;;;;;;;2.17;1.80;;;16.20;69.60;;;;;;5060043;28;20033;-79
2021/09/29 04:18:31;;;;;;;2.42;1.92;;;16.20;69.70;;;;;;5034597;28;20032;-79
2021/09/29 04:20:57;;;;;;;3.08;2.03;;;16.20;69.70;;;;;;5049637;28;20063;-81
2021/09/29 04:23:23;;;;;;;2.72;1.77;;;16.10;69.60;;;;;;5039915;28;20028;-81
2021/09/29 04:25:51;;;;;;;2.85;2.10;;;16.10;69.70;;;;;;5048464;28;20025;-80
2021/09/29 04:28:17;;;;;;;3.17;2.25;;;16.10;69.70;;;;;;5043007;28;20033;-80
2021/09/29 04:30:43;;;;;;;2.60;2.10;;;16.10;69.70;;;;;;5043286;28;20173;-79
2021/09/29 04:33:09;;;;;;;2.63;1.80;;;16.10;69.70;;;;;;5057990;28;20037;-81
2021/09/29 04:35:38;;;;;;;3.28;2.08;;;16.10;69.70;;;;;;5055109;28;20036;-79
2021/09/29 04:38:04;;;;;;;2.53;1.95;;;16.10;69.80;;;;;;5058878;28;20111;-80
2021/09/29 04:40:30;;;;;;;4.20;2.00;;;16.10;69.80;;;;;;5059248;28;20021;-80
2021/09/29 04:42:55;;;;;;;3.22;1.95;;;16.10;69.80;;;;;;5054621;28;20040;-79
2021/09/29 04:45:21;;;;;;;2.83;1.70;;;16.10;69.80;;;;;;5044981;28;20112;-80
2021/09/29 04:47:47;;;;;;;2.70;1.80;;;16.10;69.80;;;;;;5046460;28;20034;-80
2021/09/29 04:50:13;;;;;;;2.47;1.75;;;16.10;69.80;;;;;;5045770;28;20080;-79
2021/09/29 04:52:38;;;;;;;2.17;1.63;;;16.10;69.90;;;;;;5052289;28;20111;-80
2021/09/29 04:55:05;;;;;;;2.13;1.70;;;16.10;69.90;;;;;;5064819;28;20041;-80
2021/09/29 04:57:32;;;;;;;2.50;1.65;;;16.10;70.00;;;;;;5045276;28;20060;-80
2021/09/29 04:59:59;;;;;;;2.83;1.90;;;16.10;69.90;;;;;;5041142;28;20032;-80
2021/09/29 05:02:25;;;;;;;2.33;1.92;;;16.10;69.90;;;;;;5045367;28;20124;-80
2021/09/29 05:04:51;;;;;;;3.15;1.95;;;16.10;70.00;;;;;;5048143;28;20450;-80
2021/09/29 05:07:19;;;;;;;2.97;2.00;;;16.10;69.90;;;;;;5041249;28;20030;-80
2021/09/29 05:09:50;;;;;;;2.47;1.70;;;16.10;69.90;;;;;;5034970;28;20029;-80
2021/09/29 05:12:21;;;;;;;2.15;1.65;;;16.10;70.00;;;;;;5066981;28;20120;-76
2021/09/29 05:14:46;;;;;;;2.50;1.75;;;16.10;70.00;;;;;;5057324;28;20136;-78
2021/09/29 05:17:12;;;;;;;2.35;1.80;;;16.10;69.90;;;;;;5017458;28;20536;-80
2021/09/29 05:19:38;;;;;;;2.38;1.60;;;16.10;70.00;;;;;;5054859;28;20493;-79
2021/09/29 05:22:06;;;;;;;2.22;1.52;;;16.10;70.00;;;;;;5057011;28;20440;-77
2021/09/29 05:24:31;;;;;;;1.75;1.60;;;16.10;70.00;;;;;;5037275;28;20020;-79
2021/09/29 05:26:57;;;;;;;2.00;1.73;;;16.10;70.00;;;;;;5051913;28;20435;-77
2021/09/29 05:29:23;;;;;;;2.15;1.65;;;16.10;70.00;;;;;;5058252;28;20469;-79
2021/09/29 05:31:49;;;;;;;2.60;1.70;;;16.10;70.00;;;;;;5061243;28;20458;-78
2021/09/29 05:34:15;;;;;;;2.08;1.60;;;16.00;69.90;;;;;;5065547;28;20039;-78
2021/09/29 05:36:41;;;;;;;2.45;1.70;;;16.10;70.00;;;;;;5041077;28;20041;-77
2021/09/29 05:39:08;;;;;;;2.40;1.60;;;16.00;70.00;;;;;;5055942;28;20116;-76
2021/09/29 05:41:34;;;;;;;1.98;1.63;;;16.00;70.00;;;;;;5053160;28;20032;-76
2021/09/29 05:43:59;;;;;;;2.22;1.60;;;16.00;70.00;;;;;;5044906;28;20037;-76
2021/09/29 05:46:25;;;;;;;1.85;1.65;;;16.00;70.00;;;;;;5058751;28;20029;-76
2021/09/29 05:48:51;;;;;;;2.05;1.60;;;16.10;70.10;;;;;;5055606;28;20177;-76
2021/09/29 05:51:17;;;;;;;2.53;1.77;;;16.00;70.00;;;;;;5049456;28;20033;-79
2021/09/29 05:53:43;;;;;;;2.92;1.80;;;16.10;70.10;;;;;;5012964;28;20059;-75
2021/09/29 05:56:10;;;;;;;1.85;1.42;;;16.00;70.10;;;;;;5037107;28;20469;-77
2021/09/29 05:58:36;;;;;;;2.60;1.85;;;16.00;70.10;;;;;;5041805;28;20029;-76
2021/09/29 06:01:02;;;;;;;2.10;1.50;;;16.00;70.10;;;;;;5060107;28;20028;-77
2021/09/29 06:03:28;;;;;;;2.50;1.73;;;16.10;70.20;;;;;;5036179;28;20496;-77
2021/09/29 06:05:54;;;;;;;2.45;1.70;;;16.10;70.10;;;;;;5036204;28;20034;-77
2021/09/29 06:08:19;;;;;;;1.75;1.63;;;16.00;70.10;;;;;;5068040;28;20118;-78
2021/09/29 06:10:45;;;;;;;3.20;1.98;;;16.00;70.10;;;;;;5055557;28;20029;-83
2021/09/29 06:13:11;;;;;;;1.77;1.55;;;16.00;70.10;;;;;;5044839;28;20045;-77
2021/09/29 06:15:37;;;;;;;2.08;1.63;;;16.10;70.20;;;;;;5061396;28;20040;-79
2021/09/29 06:18:03;;;;;;;2.80;1.70;;;16.00;70.20;;;;;;5036270;28;20053;-78
2021/09/29 06:20:33;;;;;;;2.78;1.70;;;16.00;70.20;;;;;;5033027;28;20036;-77
2021/09/29 06:23:01;;;;;;;3.17;1.73;;;16.10;70.30;;;;;;5052979;28;20033;-78
2021/09/29 06:25:27;;;;;;;1.65;1.48;;;16.00;70.20;;;;;;5051614;28;20025;-78
2021/09/29 06:27:53;;;;;;;2.60;1.77;;;16.10;70.30;;;;;;5036808;28;20037;-78
2021/09/29 06:30:20;;;;;;;2.30;1.63;;;16.00;70.20;;;;;;5062914;28;20058;-77
2021/09/29 06:32:46;;;;;;;1.90;1.50;;;16.00;70.30;;;;;;5054466;28;20179;-77
2021/09/29 06:35:12;;;;;;;1.73;1.52;;;16.00;70.20;;;;;;5063750;28;20116;-78
2021/09/29 06:37:44;;;;;;;2.50;1.63;;;16.00;70.30;;;;;;5047793;28;20040;-78
2021/09/29 06:40:15;;;;;;;1.65;1.42;;;16.00;70.30;;;;;;5056142;28;20108;-78
2021/09/29 06:42:42;;;;;;;2.42;1.60;;;16.00;70.40;;;;;;5037513;28;20383;-78
2021/09/29 06:45:10;;;;;;;2.55;1.63;;;16.00;70.30;;;;;;5062290;28;20028;-80
2021/09/29 06:47:38;;;;;;;1.65;1.40;;;16.10;70.40;;;;;;5036001;28;20029;-80
2021/09/29 06:50:05;;;;;;;2.28;1.48;;;16.00;70.40;;;;;;5043403;28;20055;-79
2021/09/29 06:52:31;;;;;;;2.28;1.70;;;16.00;70.40;;;;;;5036503;28;20033;-78
2021/09/29 06:54:57;;;;;;;2.40;1.45;;;16.00;70.40;;;;;;5020003;28;20047;-79
2021/09/29 06:57:23;;;;;;;1.45;1.30;;;16.10;70.50;;;;;;5052653;28;20029;-79
2021/09/29 06:59:48;;;;;;;1.70;1.60;;;16.00;70.40;;;;;;5039835;28;20033;-78
2021/09/29 07:02:14;;;;;;;1.77;1.35;;;16.10;70.50;;;;;;5040815;28;20044;-78
2021/09/29 07:04:40;;;;;;;1.83;1.60;;;16.10;70.50;;;;;;5060640;28;20505;-78
2021/09/29 07:07:06;;;;;;;1.73;1.50;;;16.10;70.50;;;;;;5043469;28;20021;-78
2021/09/29 07:09:31;;;;;;;2.03;1.48;;;16.10;70.50;;;;;;5060867;28;20351;-78
2021/09/29 07:11:57;;;;;;;1.73;1.55;;;16.10;70.50;;;;;;5044162;28;20094;-79
2021/09/29 07:14:23;;;;;;;1.58;1.38;;;16.10;70.50;;;;;;5062034;28;20077;-77
2021/09/29 07:16:49;;;;;;;1.92;1.38;;;16.10;70.50;;;;;;5065351;28;20025;-78
2021/09/29 07:19:15;;;;;;;1.88;1.50;;;16.10;70.50;;;;;;5059887;28;20473;-78
2021/09/29 07:21:41;;;;;;;1.65;1.45;;;16.10;70.50;;;;;;5045976;28;20519;-78
2021/09/29 07:24:06;;;;;;;2.15;1.50;;;16.10;70.60;;;;;;5022744;28;20052;-79
2021/09/29 07:26:33;;;;;;;1.58;1.48;;;16.10;70.50;;;;;;5046467;28;20029;-78
2021/09/29 07:28:59;;;;;;;1.70;1.60;;;16.10;70.60;;;;;;5059196;28;20029;-78
2021/09/29 07:31:27;;;;;;;1.92;1.50;;;16.10;70.60;;;;;;5052158;28;20041;-81
2021/09/29 07:33:52;;;;;;;2.67;1.50;;;16.10;70.70;;;;;;5044099;28;20044;-78
2021/09/29 07:36:18;;;;;;;1.63;1.40;;;16.10;70.60;;;;;;5043116;28;20112;-79
2021/09/29 07:38:44;;;;;;;1.38;1.27;;;16.10;70.60;;;;;;5060472;28;20044;-79
2021/09/29 07:41:10;;;;;;;2.03;1.58;;;16.20;70.70;;;;;;5031012;28;20437;-80
2021/09/29 07:43:35;;;;;;;1.80;1.30;;;16.10;70.70;;;;;;5053327;28;20029;-80
2021/09/29 07:46:03;;;;;;;2.20;1.25;;;16.10;70.70;;;;;;5038162;28;20078;-81
2021/09/29 07:48:28;;;;;;;1.25;1.15;;;16.10;70.70;;;;;;5039095;28;20029;-81
2021/09/29 07:50:54;;;;;;;1.50;1.20;;;16.10;70.70;;;;;;5041787;28;20082;-80
2021/09/29 07:53:24;;;;;;;1.70;1.40;;;16.20;70.80;;;;;;5044020;28;20045;-81
2021/09/29 07:55:51;;;;;;;1.48;1.23;;;16.20;70.80;;;;;;5063528;28;20025;-80
2021/09/29 07:58:16;;;;;;;1.92;1.40;;;16.20;70.80;;;;;;5039693;28;20021;-82
2021/09/29 08:00:42;;;;;;;3.40;1.42;;;16.10;70.80;;;;;;5054080;28;20401;-82
2021/09/29 08:03:08;;;;;;;1.50;1.40;;;16.20;70.80;;;;;;5042181;28;20123;-82
2021/09/29 08:05:34;;;;;;;1.77;1.30;;;16.20;70.80;;;;;;5037930;28;20120;-81
2021/09/29 08:07:59;;;;;;;1.60;1.38;;;16.20;70.80;;;;;;5034684;28;20465;-81
2021/09/29 08:10:25;;;;;;;1.58;1.42;;;16.20;70.80;;;;;;5056460;28;20028;-80
2021/09/29 08:12:51;;;;;;;1.40;1.30;;;16.20;70.80;;;;;;5027492;28;20269;-83
2021/09/29 08:15:17;;;;;;;1.38;1.27;;;16.20;70.80;;;;;;5059946;28;20032;-81
2021/09/29 08:17:45;;;;;;;1.45;1.20;;;16.20;70.90;;;;;;5034752;28;20036;-81
2021/09/29 08:20:13;;;;;;;1.80;1.38;;;16.20;70.90;;;;;;5051050;28;20013;-82
2021/09/29 08:22:40;;;;;;;1.85;1.33;;;16.20;70.90;;;;;;5052850;28;20025;-83
2021/09/29 08:33:20;;;;;;;1.48;1.20;;;16.20;70.90;;;;;;5059682;28;20036;-82
2021/09/29 08:35:55;;;;;;;1.20;1.10;;;16.20;70.90;;;;;;5054669;28;20071;-81
2021/09/29 08:38:49;;;;;;;;;;;16.20;70.90;;;;;;5053113;28;20497;-81
2021/09/29 08:43:52;;;;;;;1.17;1.08;;;16.20;70.70;;;;;;5042349;28;20039;-83
2021/09/29 08:49:32;;;;;;;1.63;1.25;;;16.20;71.00;;;;;;5062639;28;20543;-82
2021/09/29 08:51:52;;;;;;;2.33;1.30;;;16.20;71.10;;;;;;5058769;28;20045;-83
2021/09/29 09:16:17;;;;;;;2.13;1.20;;;16.30;71.20;;;;;;5036818;28;20029;-82
2021/09/29 09:18:50;;;;;;;1.33;1.23;;;16.30;71.20;;;;;;5036261;28;20389;-83
2021/09/29 09:21:18;;;;;;;1.67;1.33;;;16.30;71.30;;;;;;5043732;28;20047;-83
2021/09/29 09:23:45;;;;;;;1.63;1.50;;;16.30;71.30;;;;;;5058514;28;20025;-83
2021/09/29 09:26:26;;;;;;;1.80;1.58;;;16.30;71.30;;;;;;5034928;28;20120;-83
2021/09/29 09:29:05;;;;;;;2.22;1.40;;;16.40;71.50;;;;;;5060254;28;20029;-83
2021/09/29 09:31:31;;;;;;;2.03;1.60;;;16.40;71.40;;;;;;5036019;28;20487;-83
2021/09/29 09:34:02;;;;;;;1.80;1.30;;;16.40;71.30;;;;;;5066061;28;20040;-83
2021/09/29 09:36:37;;;;;;;1.42;1.33;;;16.40;71.40;;;;;;5054854;28;20028;-82
2021/09/29 09:39:08;;;;;;;1.50;1.38;;;16.40;71.40;;;;;;5054897;28;20125;-82
2021/09/29 09:41:34;;;;;;;1.45;1.35;;;16.40;71.30;;;;;;5044588;28;20376;-84
2021/09/29 09:44:02;;;;;;;1.50;1.40;;;16.40;71.30;;;;;;5037905;28;20048;-81
2021/09/29 09:46:28;;;;;;;1.50;1.40;;;16.40;71.30;;;;;;5049583;28;20028;-82
2021/09/29 09:49:05;;;;;;;1.60;1.30;;;16.40;71.30;;;;;;5060070;28;20041;-82
2021/09/29 09:51:33;;;;;;;1.45;1.35;;;16.40;71.40;;;;;;5061109;28;20515;-80
2021/09/29 09:54:00;;;;;;;1.85;1.40;;;16.40;71.30;;;;;;5043404;28;20025;-82
2021/09/29 09:56:31;;;;;;;2.03;1.50;;;16.40;71.20;;;;;;5082757;28;20553;-81
2021/09/29 09:58:58;;;;;;;1.42;1.33;;;16.40;71.20;;;;;;5055051;28;20040;-82
2021/09/29 10:01:28;;;;;;;1.55;1.45;;;16.40;71.20;;;;;;5061284;28;20025;-82
2021/09/29 10:03:54;;;;;;;1.75;1.45;;;16.40;71.20;;;;;;5048622;28;20686;-82
2021/09/29 10:06:23;;;;;;;1.58;1.27;;;16.50;71.30;;;;;;5045012;28;20025;-82
2021/09/29 10:12:02;;;;;;;1.83;1.48;;;16.50;71.20;;;;;;5048053;28;20567;-83
2021/09/29 10:23:20;;;;;;;1.60;1.20;;;16.50;71.20;;;;;;5064488;28;20689;-82
2021/09/29 10:26:21;;;;;;;1.15;1.10;;;16.50;71.20;;;;;;5062532;28;20074;-80
2021/09/29 10:28:48;;;;;;;1.30;1.20;;;16.40;71.20;;;;;;5044492;28;20029;-82
2021/09/29 10:34:14;;;;;;;1.25;1.00;;;16.40;71.20;;;;;;5055670;28;20036;-82
2021/09/29 10:42:39;;;;;;;1.60;1.30;;;16.40;71.20;;;;;;5060875;28;20043;-83
2021/09/29 10:48:22;;;;;;;1.10;1.10;;;16.40;71.20;;;;;;5056710;28;20045;-82
2021/09/29 11:29:50;;;;;;;0.90;0.82;;;16.40;71.40;;;;;;5056755;28;20082;-82
2021/09/29 11:32:29;;;;;;;1.10;1.00;;;16.40;71.30;;;;;;5053312;28;20041;-82
2021/09/29 11:34:58;;;;;;;0.70;0.70;;;16.40;71.40;;;;;;5059984;28;20112;-82
2021/09/29 11:37:56;;;;;;;0.77;0.77;;;16.40;71.40;;;;;;5052919;28;20029;-82
2021/09/29 12:10:31;;;;;;;0.73;0.73;;;16.30;71.20;;;;;;5062020;28;20366;-81
2021/09/29 12:12:58;;;;;;;0.80;0.80;;;16.30;71.30;;;;;;5060784;28;20106;-81
2021/09/29 12:15:23;;;;;;;0.70;0.70;;;16.40;71.40;;;;;;5047077;28;20033;-81
2021/09/29 12:17:50;;;;;;;1.10;0.90;;;16.30;71.30;;;;;;5059663;28;20036;-81
2021/09/29 12:20:21;;;;;;;0.70;0.70;;;16.40;71.40;;;;;;5051075;28;20140;-81
2021/09/29 12:22:53;;;;;;;1.02;0.85;;;16.40;71.40;;;;;;5051647;28;20044;-81
2021/09/29 12:25:42;;;;;;;0.80;0.80;;;16.40;71.40;;;;;;5059235;28;20021;-81
2021/09/29 12:33:53;;;;;;;0.80;0.70;;;16.40;71.50;;;;;;5058289;28;20038;-80
2021/09/29 12:36:36;;;;;;;1.05;0.77;;;16.40;72.00;;;;;;5052265;28;20040;-80
2021/09/29 12:39:15;;;;;;;1.08;0.98;;;16.40;71.50;;;;;;5059826;28;20389;-80
2021/09/29 12:41:52;;;;;;;0.98;0.90;;;16.40;71.50;;;;;;5059650;28;20028;-81
2021/09/29 12:44:19;;;;;;;1.10;0.90;;;16.40;71.60;;;;;;5051565;28;20036;-81
2021/09/29 12:47:03;;;;;;;0.80;0.80;;;16.40;71.40;;;;;;5062167;28;20410;-80
2021/09/29 12:49:29;;;;;;;1.33;0.95;;;16.40;71.50;;;;;;5054973;28;20029;-81
2021/09/29 12:52:10;;;;;;;0.80;0.80;;;16.40;71.40;;;;;;5060151;28;20059;-81
2021/09/29 12:54:47;;;;;;;0.93;0.90;;;16.40;71.40;;;;;;5061535;28;20037;-80
2021/09/29 12:57:13;;;;;;;0.95;0.90;;;16.50;71.50;;;;;;5058423;28;20053;-81
2021/09/29 12:59:38;;;;;;;1.17;1.00;;;16.40;71.40;;;;;;5059694;28;20418;-80
2021/09/29 13:02:04;;;;;;;0.98;0.80;;;16.50;71.40;;;;;;5056530;28;20388;-81
2021/09/29 13:04:30;;;;;;;1.48;0.90;;;16.50;71.50;;;;;;5044514;28;20029;-81
2021/09/29 13:06:56;;;;;;;0.73;0.73;;;16.50;71.40;;;;;;5039050;28;20053;-80
2021/09/29 13:09:21;;;;;;;1.30;0.93;;;16.50;71.50;;;;;;5038557;28;20527;-80
2021/09/29 13:11:47;;;;;;;0.90;0.73;;;16.50;71.40;;;;;;5042097;28;20056;-80
2021/09/29 13:14:13;;;;;;;1.08;0.80;;;16.50;71.40;;;;;;5055717;28;20053;-80
2021/09/29 13:16:38;;;;;;;1.00;0.70;;;16.50;71.40;;;;;;5056264;28;20106;-81
2021/09/29 13:19:11;;;;;;;0.77;0.77;;;16.50;71.40;;;;;;5054497;28;20048;-81
2021/09/29 13:21:48;;;;;;;0.90;0.90;;;16.50;71.50;;;;;;5071378;28;20032;-81
2021/09/29 13:24:20;;;;;;;0.80;0.75;;;16.50;71.40;;;;;;5054453;28;20504;-83
2021/09/29 13:37:53;;;;;;;0.88;0.80;;;16.50;71.40;;;;;;4997055;28;20037;-81
2021/09/29 13:40:19;;;;;;;1.75;0.80;;;16.50;71.40;;;;;;5023011;28;20089;-81
2021/09/29 13:42:45;;;;;;;2.05;0.95;;;16.50;71.50;;;;;;5055320;28;20041;-80
2021/09/29 13:45:11;;;;;;;0.98;0.90;;;16.50;71.50;;;;;;5046097;28;20033;-80
2021/09/29 13:47:37;;;;;;;0.77;0.75;;;16.60;71.60;;;;;;5026069;28;20032;-80
2021/09/29 13:50:05;;;;;;;3.17;1.10;;;16.60;71.60;;;;;;5045499;28;20033;-80
2021/09/29 13:52:31;;;;;;;0.98;0.80;;;16.60;71.60;;;;;;5061702;28;20045;-80
2021/09/29 13:55:02;;;;;;;1.05;0.80;;;16.60;71.60;;;;;;5045628;28;20029;-81
2021/09/29 13:57:36;;;;;;;0.65;0.65;;;16.60;71.50;;;;;;5046282;28;20156;-79
2021/09/29 14:00:12;;;;;;;0.70;0.70;;;16.60;71.50;;;;;;5058401;28;20035;-81
2021/09/29 14:30:17;;;;;;;0.77;0.70;;;16.70;71.40;;;;;;5062191;28;20037;-80
2021/09/29 14:32:51;;;;;;;1.10;0.55;;;16.70;71.30;;;;;;5056245;28;20025;-80
2021/09/29 14:35:16;;;;;;;0.75;0.75;;;16.60;71.30;;;;;;5048665;28;20473;-80
2021/09/29 14:37:42;;;;;;;1.27;0.80;;;16.60;71.30;;;;;;5036792;28;20025;-81
2021/09/29 14:40:08;;;;;;;0.52;0.52;;;16.60;71.20;;;;;;5022851;28;20043;-80
2021/09/29 14:42:34;;;;;;;0.85;0.70;;;16.70;71.20;;;;;;5063304;28;20116;-81
2021/09/29 14:45:00;;;;;;;0.85;0.70;;;16.70;71.20;;;;;;5042521;28;20119;-80
2021/09/29 14:47:26;;;;;;;0.95;0.70;;;16.70;71.20;;;;;;5039179;28;20104;-83
2021/09/29 14:49:52;;;;;;;0.73;0.70;;;16.70;71.10;;;;;;5057115;28;20063;-80
2021/09/29 14:52:17;;;;;;;1.05;0.70;;;16.70;71.10;;;;;;5038612;28;20021;-80
2021/09/29 14:54:43;;;;;;;0.98;0.70;;;16.70;71.00;;;;;;5023454;28;20037;-81
2021/09/29 14:57:10;;;;;;;0.65;0.60;;;16.70;71.00;;;;;;5061074;28;20094;-79
2021/09/29 14:59:44;;;;;;;1.20;0.77;;;16.70;70.90;;;;;;5064133;28;20028;-80
2021/09/29 15:02:11;;;;;;;0.60;0.55;;;16.70;70.90;;;;;;5076028;28;20040;-81
2021/09/29 15:04:41;;;;;;;0.70;0.70;;;16.70;70.90;;;;;;5068935;28;20029;-81
2021/09/29 15:07:07;;;;;;;0.75;0.57;;;16.70;70.80;;;;;;5050752;28;20040;-79
2021/09/29 15:09:33;;;;;;;0.75;0.60;;;16.70;70.80;;;;;;5053694;28;20049;-81
2021/09/29 15:11:59;;;;;;;1.13;0.80;;;16.70;70.70;;;;;;5035767;28;20029;-80
2021/09/29 15:17:19;;;;;;;1.20;0.73;;;16.70;70.70;;;;;;5045301;28;20036;-81
2021/09/29 15:19:53;;;;;;;1.35;0.70;;;16.70;70.60;;;;;;5063486;28;20032;-80
2021/09/29 15:22:37;;;;;;;0.90;0.60;;;16.70;70.60;;;;;;5065019;28;20386;-80
2021/09/29 15:49:42;;;;;;;0.93;0.60;;;16.70;70.50;;;;;;5067089;28;20083;-81
2021/09/29 15:52:28;;;;;;;0.50;0.50;;;16.70;70.50;;;;;;5052266;28;20481;-81
2021/09/29 16:00:40;;;;;;;0.60;0.60;;;16.70;70.50;;;;;;5058422;28;20040;-81
2021/09/29 16:03:14;;;;;;;0.80;0.68;;;16.70;71.10;;;;;;5056483;28;20500;-81
2021/09/29 16:05:52;;;;;;;1.70;0.80;;;16.60;70.40;;;;;;5061178;28;20032;-82
2021/09/29 16:19:27;;;;;;;0.60;0.60;;;16.60;70.40;;;;;;5064509;28;20073;-82
2021/09/29 16:37:32;;;;;;;0.82;0.65;;;16.50;70.30;;;;;;5046991;28;20071;-81
2021/09/29 16:39:58;;;;;;;1.08;0.80;;;16.50;70.30;;;;;;5048395;28;20041;-81
2021/09/29 16:42:25;;;;;;;1.48;0.73;;;16.50;70.20;;;;;;5045309;28;20055;-79
2021/09/29 16:44:51;;;;;;;0.80;0.60;;;16.40;70.20;;;;;;5032207;28;20065;-80